Time;durP1;ratioP1;P1;durP2;ratioP2;P2;SDS_P1;SDS_P2;PMS_P1;PMS_P2;Temp;Humidity;BMP_temperature;BMP_pressure;BME280_temperature;BME280_humidity;BME280_pressure;Samples;Min_cycle;Max_cycle;Signal;HPM_P1;HPM_P2
2022/06/21 00:01:25;;;;;;;4.57;1.50;;;14.20;99.90;;;;;;5016325;28;20062;-73
2022/06/21 00:03:54;;;;;;;3.95;1.77;;;14.30;99.90;;;;;;5016116;28;20478;-73
2022/06/21 00:06:27;;;;;;;5.18;1.45;;;14.50;99.90;;;;;;5016009;28;20080;-75
2022/06/21 00:08:55;;;;;;;4.35;1.40;;;14.60;99.90;;;;;;5015302;28;20090;-74
2022/06/21 00:11:31;;;;;;;3.28;1.13;;;14.60;99.90;;;;;;5016296;28;20478;-73
2022/06/21 00:13:58;;;;;;;4.15;1.70;;;14.70;99.90;;;;;;5016274;28;20056;-73
2022/06/21 00:16:28;;;;;;;6.00;1.73;;;14.90;99.90;;;;;;5016397;28;20034;-73
2022/06/21 00:18:56;;;;;;;4.18;1.65;;;15.00;99.90;;;;;;5017056;28;20355;-74
2022/06/21 00:21:35;;;;;;;4.30;2.00;;;15.00;99.90;;;;;;5015922;28;20494;-75
2022/06/21 00:24:02;;;;;;;4.30;1.20;;;15.00;99.90;;;;;;5015903;28;20084;-75
2022/06/21 00:26:31;;;;;;;2.65;1.05;;;15.00;99.90;;;;;;5014533;28;20022;-73
2022/06/21 00:28:58;;;;;;;3.72;1.65;;;15.10;99.90;;;;;;5015651;28;20471;-73
2022/06/21 00:31:35;;;;;;;7.30;1.88;;;15.10;99.90;;;;;;5014520;28;20030;-73
2022/06/21 00:34:15;;;;;;;7.18;1.23;;;15.20;99.90;;;;;;5015612;28;20018;-75
2022/06/21 00:36:44;;;;;;;3.75;1.40;;;15.30;99.90;;;;;;5014543;28;20033;-74
2022/06/21 00:39:14;;;;;;;3.28;1.10;;;15.40;99.90;;;;;;5014211;28;20085;-74
2022/06/21 00:41:47;;;;;;;4.82;1.10;;;15.50;99.90;;;;;;5014226;28;20025;-74
2022/06/21 00:44:31;;;;;;;3.35;1.23;;;15.50;99.90;;;;;;5014039;28;20026;-74
2022/06/21 00:47:04;;;;;;;2.53;1.02;;;15.50;99.90;;;;;;5014085;28;20036;-74
2022/06/21 00:49:49;;;;;;;2.42;0.98;;;15.50;99.90;;;;;;5013036;28;20033;-74
2022/06/21 00:52:23;;;;;;;4.63;1.13;;;15.50;99.90;;;;;;5015360;28;20180;-74
2022/06/21 00:54:53;;;;;;;4.55;1.35;;;15.70;99.90;;;;;;5015274;28;20395;-74
2022/06/21 00:57:25;;;;;;;2.13;0.93;;;15.80;99.90;;;;;;5015006;28;20849;-75
2022/06/21 00:59:53;;;;;;;3.88;1.10;;;15.90;99.90;;;;;;5014046;28;20041;-73
2022/06/21 01:02:33;;;;;;;3.83;1.00;;;16.10;99.90;;;;;;5013916;28;20433;-74
2022/06/21 01:05:02;;;;;;;5.63;0.98;;;16.10;99.90;;;;;;5013686;28;20030;-73
2022/06/21 01:07:31;;;;;;;2.35;0.70;;;16.10;99.90;;;;;;5015182;28;20026;-73
2022/06/21 01:10:09;;;;;;;4.68;1.52;;;16.30;99.90;;;;;;5015152;28;20036;-73
2022/06/21 01:13:06;;;;;;;2.72;0.98;;;16.40;99.90;;;;;;5015168;28;20014;-73
2022/06/21 01:15:46;;;;;;;2.60;0.80;;;16.50;99.90;;;;;;5007698;28;20070;-73
2022/06/21 01:18:17;;;;;;;2.97;1.00;;;16.70;99.90;;;;;;5013824;28;20518;-73
2022/06/21 01:20:53;;;;;;;4.20;0.70;;;16.80;99.90;;;;;;5015019;28;20096;-73
2022/06/21 01:23:36;;;;;;;4.25;1.02;;;16.90;99.90;;;;;;5015073;28;20033;-73
2022/06/21 01:26:39;;;;;;;2.13;0.70;;;17.00;99.90;;;;;;5014892;28;20509;-74
2022/06/21 01:29:13;;;;;;;2.35;1.00;;;17.10;99.90;;;;;;5014979;28;20025;-73
2022/06/21 01:31:42;;;;;;;4.40;1.30;;;17.20;99.90;;;;;;5013533;28;20026;-72
2022/06/21 01:34:21;;;;;;;3.25;1.15;;;17.40;99.90;;;;;;5013286;28;20112;-72
2022/06/21 01:36:53;;;;;;;1.90;1.10;;;17.50;99.90;;;;;;5014734;28;20022;-72
2022/06/21 01:39:39;;;;;;;2.83;1.17;;;17.70;99.90;;;;;;5013310;28;20030;-72
2022/06/21 01:42:19;;;;;;;3.85;1.17;;;17.90;99.90;;;;;;5014645;28;20049;-72
2022/06/21 01:44:53;;;;;;;3.70;1.08;;;18.20;99.90;;;;;;5013119;28;20032;-72
2022/06/21 01:47:25;;;;;;;2.92;1.13;;;18.40;99.90;;;;;;5014447;28;20033;-72
2022/06/21 01:50:03;;;;;;;2.80;1.35;;;18.50;99.90;;;;;;5013072;28;20029;-72
2022/06/21 01:52:36;;;;;;;3.00;0.75;;;18.60;99.90;;;;;;5014673;28;20062;-73
2022/06/21 01:55:11;;;;;;;1.42;0.50;;;18.70;99.90;;;;;;5014509;28;20109;-73
2022/06/21 01:57:39;;;;;;;1.65;0.88;;;18.70;99.90;;;;;;5012653;28;20046;-73
2022/06/21 02:00:08;;;;;;;1.83;0.50;;;18.80;99.90;;;;;;5012902;28;20109;-73
2022/06/21 02:02:51;;;;;;;2.00;0.63;;;18.90;99.90;;;;;;5012396;28;20537;-73
2022/06/21 02:05:22;;;;;;;2.95;0.70;;;19.00;99.90;;;;;;5014116;28;20030;-72
2022/06/21 02:07:56;;;;;;;1.52;0.60;;;19.10;99.90;;;;;;5014126;28;20025;-72
2022/06/21 02:10:41;;;;;;;2.38;0.57;;;19.00;99.90;;;;;;5012658;28;20038;-72
2022/06/21 02:13:26;;;;;;;2.00;0.50;;;19.00;99.90;;;;;;5014158;28;20386;-72
2022/06/21 02:16:07;;;;;;;1.85;0.40;;;19.00;99.90;;;;;;5013920;28;20506;-72
2022/06/21 02:18:40;;;;;;;1.15;0.60;;;19.00;99.90;;;;;;5012615;28;20057;-72
2022/06/21 02:21:26;;;;;;;5.22;0.70;;;19.00;99.90;;;;;;5014041;28;20073;-73
2022/06/21 02:23:57;;;;;;;1.90;0.75;;;19.00;99.90;;;;;;5013875;28;20512;-71
2022/06/21 02:26:28;;;;;;;1.77;0.47;;;19.00;99.90;;;;;;5012352;28;20552;-71
2022/06/21 02:28:56;;;;;;;3.83;0.77;;;19.10;99.90;;;;;;5012435;28;20113;-71
2022/06/21 02:31:28;;;;;;;2.38;0.80;;;18.90;99.90;;;;;;5013651;28;20026;-72
2022/06/21 02:34:04;;;;;;;3.10;0.98;;;18.90;99.90;;;;;;5013871;28;20066;-72
2022/06/21 02:36:44;;;;;;;3.38;0.65;;;19.00;99.90;;;;;;5013986;28;20095;-71
2022/06/21 02:39:16;;;;;;;1.73;0.70;;;19.10;99.90;;;;;;5012378;28;20061;-72
2022/06/21 02:41:47;;;;;;;1.92;0.60;;;19.10;99.90;;;;;;5012246;28;20029;-71
2022/06/21 02:44:26;;;;;;;1.90;0.80;;;19.10;99.90;;;;;;5013579;28;20044;-71
2022/06/21 02:47:06;;;;;;;2.67;1.20;;;19.20;99.90;;;;;;5013227;28;20394;-71
2022/06/21 02:49:44;;;;;;;1.65;0.90;;;19.30;99.90;;;;;;5013289;28;20022;-72
2022/06/21 02:52:24;;;;;;;2.00;0.70;;;19.50;99.90;;;;;;5013603;28;20057;-72
2022/06/21 02:55:01;;;;;;;1.35;0.65;;;19.40;99.90;;;;;;5013852;28;20018;-72
2022/06/21 02:57:40;;;;;;;2.55;0.93;;;19.50;99.90;;;;;;5011737;28;20042;-72
2022/06/21 03:00:15;;;;;;;1.95;0.60;;;19.60;99.90;;;;;;5013360;28;20025;-72
2022/06/21 03:02:44;;;;;;;3.03;0.88;;;19.70;99.90;;;;;;5011964;28;20207;-71
2022/06/21 03:05:23;;;;;;;1.48;0.60;;;19.60;99.90;;;;;;5011916;28;21901;-71
2022/06/21 03:07:57;;;;;;;1.52;0.80;;;19.60;99.90;;;;;;5013417;28;20026;-71
2022/06/21 03:10:31;;;;;;;2.38;0.65;;;19.80;99.90;;;;;;5013477;28;20058;-71
2022/06/21 03:13:15;;;;;;;2.05;0.70;;;19.90;99.90;;;;;;5012533;28;20033;-71
2022/06/21 03:15:46;;;;;;;1.60;0.70;;;19.90;99.90;;;;;;5013210;28;20025;-71
2022/06/21 03:18:23;;;;;;;2.15;0.90;;;19.90;99.90;;;;;;5013108;28;20026;-72
2022/06/21 03:20:52;;;;;;;1.92;0.60;;;20.00;99.90;;;;;;5011837;28;20030;-72
2022/06/21 03:23:21;;;;;;;1.23;0.50;;;20.00;99.90;;;;;;5013017;28;20034;-71
2022/06/21 03:26:01;;;;;;;1.88;0.90;;;19.90;99.90;;;;;;5013006;28;20029;-71
2022/06/21 03:28:35;;;;;;;2.03;0.90;;;19.90;99.90;;;;;;5013189;28;20014;-71
2022/06/21 03:31:15;;;;;;;1.08;0.60;;;19.90;99.90;;;;;;5012917;28;20435;-71
2022/06/21 03:33:52;;;;;;;2.83;0.60;;;19.80;99.90;;;;;;5011494;28;20451;-71
2022/06/21 03:36:25;;;;;;;1.80;0.80;;;19.70;99.90;;;;;;5013278;28;20401;-71
2022/06/21 03:39:00;;;;;;;1.20;0.70;;;19.60;99.90;;;;;;5011484;28;20092;-70
2022/06/21 03:41:43;;;;;;;1.40;0.70;;;19.60;99.90;;;;;;5012893;28;20072;-70
2022/06/21 03:44:53;;;;;;;2.40;0.50;;;19.60;99.90;;;;;;5012918;28;20050;-71
2022/06/21 03:47:29;;;;;;;1.75;0.60;;;19.60;99.90;;;;;;4997997;28;20120;-71
2022/06/21 03:50:16;;;;;;;0.98;0.50;;;19.60;99.90;;;;;;5012793;28;20501;-70
2022/06/21 03:52:47;;;;;;;1.80;0.60;;;19.50;99.90;;;;;;5012393;28;20452;-70
2022/06/21 03:55:23;;;;;;;3.22;0.63;;;19.50;99.90;;;;;;5012802;28;20026;-71
2022/06/21 03:58:28;;;;;;;2.35;0.60;;;19.40;99.90;;;;;;5012521;28;20050;-70
2022/06/21 04:01:05;;;;;;;3.47;0.82;;;19.40;99.90;;;;;;5012687;28;20434;-70
2022/06/21 04:03:52;;;;;;;2.08;0.70;;;19.30;99.90;;;;;;5012638;28;20018;-70
2022/06/21 04:06:45;;;;;;;2.47;0.70;;;19.10;99.90;;;;;;5012916;28;20026;-71
2022/06/21 04:09:33;;;;;;;1.60;0.60;;;19.10;99.90;;;;;;5010925;28;20498;-70
2022/06/21 04:12:12;;;;;;;0.90;0.65;;;19.00;99.90;;;;;;5012595;28;20098;-70
2022/06/21 04:14:52;;;;;;;2.28;1.10;;;18.90;99.90;;;;;;5012620;28;20364;-68
2022/06/21 04:17:37;;;;;;;1.20;0.70;;;18.90;99.90;;;;;;5012506;28;20028;-68
2022/06/21 04:20:35;;;;;;;1.10;1.00;;;19.00;99.90;;;;;;5012377;28;20050;-68
2022/06/21 04:23:16;;;;;;;3.67;0.68;;;19.00;99.90;;;;;;5012356;28;20037;-69
2022/06/21 04:26:00;;;;;;;2.47;0.85;;;19.00;99.90;;;;;;5015417;28;20389;-70
2022/06/21 04:28:48;;;;;;;1.77;0.80;;;18.90;99.90;;;;;;5015693;28;20018;-70
2022/06/21 04:31:42;;;;;;;1.60;0.77;;;18.90;99.90;;;;;;5016027;28;20041;-70
2022/06/21 04:34:25;;;;;;;2.40;0.70;;;19.00;99.90;;;;;;4994926;28;20037;-71
2022/06/21 04:37:05;;;;;;;2.22;0.90;;;19.00;99.90;;;;;;5015859;28;20029;-70
2022/06/21 04:40:04;;;;;;;0.95;0.45;;;19.00;99.90;;;;;;5015715;28;20026;-70
2022/06/21 04:43:02;;;;;;;1.15;0.70;;;19.20;99.90;;;;;;5007829;28;20061;-70
2022/06/21 04:45:49;;;;;;;1.98;0.70;;;19.20;99.90;;;;;;5014406;28;20407;-69
2022/06/21 04:48:37;;;;;;;0.95;0.60;;;19.30;99.90;;;;;;5015684;28;20025;-69
2022/06/21 04:51:19;;;;;;;2.15;0.60;;;19.30;99.90;;;;;;5015546;28;20018;-70
2022/06/21 04:54:05;;;;;;;2.05;0.70;;;19.20;99.90;;;;;;5015514;28;20407;-69
2022/06/21 04:56:43;;;;;;;1.92;0.60;;;19.20;99.90;;;;;;5015699;28;20033;-70
2022/06/21 04:59:32;;;;;;;1.75;0.75;;;19.10;99.90;;;;;;5015181;28;20057;-70
2022/06/21 05:02:01;;;;;;;2.42;0.85;;;19.00;99.90;;;;;;5013970;28;20057;-70
2022/06/21 05:04:41;;;;;;;1.88;0.68;;;19.00;99.90;;;;;;5015146;28;20164;-70
2022/06/21 05:07:18;;;;;;;2.25;0.65;;;19.00;99.90;;;;;;5015237;28;20053;-70
2022/06/21 05:09:47;;;;;;;1.17;0.50;;;19.00;99.90;;;;;;5015046;28;20033;-70
2022/06/21 05:12:34;;;;;;;1.95;0.75;;;19.00;99.90;;;;;;5013679;28;20029;-70
2022/06/21 05:15:16;;;;;;;1.92;0.73;;;19.00;99.90;;;;;;5015028;28;20148;-70
2022/06/21 05:17:50;;;;;;;3.75;0.75;;;19.00;99.90;;;;;;5015112;28;20513;-71
2022/06/21 05:20:20;;;;;;;2.20;1.00;;;18.90;99.90;;;;;;5015005;28;20101;-70
2022/06/21 05:22:58;;;;;;;2.17;0.52;;;18.90;99.90;;;;;;5014930;28;20022;-69
2022/06/21 05:25:37;;;;;;;0.80;0.60;;;18.70;99.90;;;;;;5014831;28;20067;-70
2022/06/21 05:28:20;;;;;;;1.90;0.70;;;18.50;99.90;;;;;;5013491;28;20018;-70
2022/06/21 05:30:53;;;;;;;1.80;0.68;;;18.40;99.90;;;;;;5013328;28;20394;-70
2022/06/21 05:33:23;;;;;;;1.67;0.75;;;18.20;99.90;;;;;;5014757;28;20105;-70
2022/06/21 05:35:51;;;;;;;2.93;0.70;;;18.10;99.90;;;;;;5013786;28;20022;-70
2022/06/21 05:38:27;;;;;;;3.00;0.80;;;18.10;99.90;;;;;;5014631;28;20391;-70
2022/06/21 05:41:32;;;;;;;1.20;0.60;;;18.00;99.90;;;;;;5013480;28;20430;-69
2022/06/21 05:44:22;;;;;;;1.30;0.60;;;18.10;99.90;;;;;;4993970;28;20041;-70
2022/06/21 05:46:53;;;;;;;1.23;0.60;;;18.20;99.90;;;;;;5014442;28;20022;-70
2022/06/21 05:49:24;;;;;;;1.67;0.80;;;18.30;99.90;;;;;;5013181;28;20360;-70
2022/06/21 05:51:52;;;;;;;;;;;18.30;99.90;;;;;;5015022;28;20026;-69
2022/06/21 05:54:24;;;;;;;2.00;0.65;;;18.30;99.90;;;;;;5013017;28;19952;-69
2022/06/21 05:56:51;;;;;;;1.30;0.80;;;18.30;99.90;;;;;;5014238;28;20073;-70
2022/06/21 05:59:23;;;;;;;2.28;0.60;;;18.30;99.90;;;;;;5013934;28;20506;-70
2022/06/21 06:02:12;;;;;;;1.38;0.70;;;18.30;99.90;;;;;;5012842;28;20414;-71
2022/06/21 06:04:58;;;;;;;2.33;0.80;;;18.20;99.90;;;;;;5014353;28;20029;-70
2022/06/21 06:07:31;;;;;;;1.73;0.63;;;18.20;99.90;;;;;;5014000;28;20028;-69
2022/06/21 06:10:03;;;;;;;2.05;0.80;;;18.20;99.90;;;;;;5014591;28;20029;-70
2022/06/21 06:12:42;;;;;;;1.80;0.77;;;18.10;99.90;;;;;;5014228;28;20025;-70
2022/06/21 06:15:30;;;;;;;2.83;0.55;;;18.10;99.90;;;;;;5014085;28;20018;-70
2022/06/21 06:18:18;;;;;;;2.28;0.75;;;18.10;99.90;;;;;;5014095;28;20021;-70
2022/06/21 06:21:15;;;;;;;2.08;1.13;;;18.10;99.90;;;;;;5012550;28;20080;-70
2022/06/21 06:23:54;;;;;;;1.23;0.60;;;18.00;99.90;;;;;;5013991;28;20101;-71
2022/06/21 06:26:39;;;;;;;2.55;1.33;;;17.90;99.90;;;;;;5013632;28;20033;-70
2022/06/21 06:29:36;;;;;;;1.63;1.25;;;17.80;99.90;;;;;;5013711;28;20026;-70
2022/06/21 06:32:18;;;;;;;1.83;0.80;;;17.70;99.90;;;;;;5012895;28;20121;-70
2022/06/21 06:34:50;;;;;;;1.15;0.73;;;17.60;99.90;;;;;;5012256;28;20024;-69
2022/06/21 06:37:30;;;;;;;3.05;0.75;;;17.60;99.90;;;;;;5013361;28;20105;-68
2022/06/21 06:39:59;;;;;;;1.90;0.88;;;17.50;99.90;;;;;;5013842;28;20022;-68
2022/06/21 06:42:30;;;;;;;1.77;0.80;;;17.50;99.90;;;;;;5013415;28;20031;-68
2022/06/21 06:45:20;;;;;;;4.63;3.40;;;17.50;99.90;;;;;;5013778;28;20025;-69
2022/06/21 06:47:52;;;;;;;4.40;3.90;;;17.40;99.90;;;;;;5013181;28;20022;-69
2022/06/21 06:50:30;;;;;;;3.28;1.48;;;17.40;99.90;;;;;;5013403;28;20030;-69
2022/06/21 06:53:29;;;;;;;2.20;1.60;;;17.30;99.90;;;;;;5011902;28;20033;-69
2022/06/21 06:56:09;;;;;;;4.28;2.30;;;17.30;99.90;;;;;;5013173;28;20017;-69
2022/06/21 06:58:58;;;;;;;;;;;17.30;99.90;;;;;;5012093;28;20498;-70
2022/06/21 07:02:02;;;;;;;3.15;1.90;;;17.30;99.90;;;;;;5013211;28;19906;-69
2022/06/21 07:04:37;;;;;;;4.53;2.38;;;17.30;99.90;;;;;;5013156;28;20034;-69
2022/06/21 07:07:17;;;;;;;6.90;3.10;;;17.30;99.90;;;;;;5011647;28;20026;-69
2022/06/21 07:09:50;;;;;;;9.48;3.90;;;17.20;99.90;;;;;;5013105;28;20020;-70
2022/06/21 07:12:22;;;;;;;8.73;3.40;;;17.10;99.90;;;;;;5013444;28;20370;-69
2022/06/21 07:14:51;;;;;;;12.15;5.18;;;16.80;99.90;;;;;;5013043;28;20029;-69
2022/06/21 07:17:38;;;;;;;9.75;4.53;;;16.40;99.90;;;;;;5012957;28;20394;-70
2022/06/21 07:20:23;;;;;;;12.50;4.80;;;16.10;99.90;;;;;;5013032;28;20041;-69
2022/06/21 07:22:55;;;;;;;15.18;5.40;;;15.80;99.90;;;;;;5012960;28;20018;-71
2022/06/21 07:25:44;;;;;;;15.15;5.53;;;15.70;99.90;;;;;;5011424;28;20402;-71
2022/06/21 07:28:28;;;;;;;12.52;5.93;;;15.60;99.90;;;;;;5012926;28;20021;-71
2022/06/21 07:30:59;;;;;;;14.02;6.15;;;15.50;99.90;;;;;;5013131;28;20022;-70
2022/06/21 07:33:36;;;;;;;12.85;6.20;;;15.40;99.90;;;;;;5012969;28;20018;-71
2022/06/21 07:36:25;;;;;;;12.98;6.72;;;15.30;99.90;;;;;;5012929;28;20041;-70
2022/06/21 07:39:06;;;;;;;11.00;5.82;;;15.20;99.90;;;;;;5012913;28;20084;-70
2022/06/21 07:41:53;;;;;;;12.07;5.47;;;15.00;99.90;;;;;;5013027;28;20061;-71
2022/06/21 07:44:42;;;;;;;12.13;6.32;;;14.90;99.90;;;;;;5012504;28;20038;-71
2022/06/21 07:47:27;;;;;;;15.73;6.47;;;14.70;99.90;;;;;;5013176;28;20030;-69
2022/06/21 07:50:09;;;;;;;13.93;7.55;;;14.70;99.90;;;;;;5013106;28;20018;-70
2022/06/21 07:52:51;;;;;;;34.60;19.55;;;14.70;99.90;;;;;;5011496;28;20056;-69
2022/06/21 07:55:24;;;;;;;59.25;37.40;;;14.70;99.90;;;;;;5012797;28;20044;-70
2022/06/21 07:57:58;;;;;;;228.05;149.77;;;14.60;99.90;;;;;;5012492;28;20121;-71
2022/06/21 08:06:41;;;;;;;43.63;25.85;;;14.70;99.90;;;;;;5015480;28;20018;-70
2022/06/21 08:09:09;;;;;;;538.22;367.67;;;14.70;99.90;;;;;;5016318;28;20029;-72
2022/06/21 08:11:43;;;;;;;279.38;178.05;;;14.70;99.90;;;;;;5016186;28;20382;-72
2022/06/21 08:14:12;;;;;;;587.83;382.20;;;14.70;99.90;;;;;;5014986;28;20030;-72
2022/06/21 08:17:19;;;;;;;485.00;324.65;;;14.70;99.90;;;;;;5016236;28;20392;-72
2022/06/21 08:19:57;;;;;;;407.20;298.45;;;14.70;99.90;;;;;;5014790;28;20030;-72
2022/06/21 08:22:48;;;;;;;423.75;323.95;;;14.60;99.90;;;;;;5016259;28;20024;-73
2022/06/21 08:25:24;;;;;;;527.65;377.70;;;14.60;99.90;;;;;;5015915;28;20148;-72
2022/06/21 08:27:57;;;;;;;475.40;346.08;;;14.70;99.90;;;;;;5014703;28;20033;-72
2022/06/21 08:30:33;;;;;;;326.65;241.68;;;14.70;99.90;;;;;;5016218;28;20018;-72
2022/06/21 08:33:16;;;;;;;515.83;419.60;;;14.60;99.90;;;;;;5014541;28;20017;-73
2022/06/21 08:35:56;;;;;;;465.13;370.70;;;14.60;99.90;;;;;;5015895;28;20367;-72
2022/06/21 08:38:32;;;;;;;332.60;256.55;;;14.70;99.90;;;;;;5015740;28;20022;-72
2022/06/21 08:41:05;;;;;;;258.88;192.85;;;14.70;99.90;;;;;;5014550;28;20124;-73
2022/06/21 08:44:12;;;;;;;159.40;114.68;;;14.60;99.90;;;;;;5015749;28;20638;-72
2022/06/21 08:47:16;;;;;;;65.50;48.28;;;14.50;99.90;;;;;;5014203;28;20022;-72
2022/06/21 08:50:15;;;;;;;15.20;11.07;;;14.50;99.90;;;;;;5015725;28;20128;-71
2022/06/21 08:52:55;;;;;;;12.55;8.05;;;14.40;99.90;;;;;;4995404;28;20092;-73
2022/06/21 08:55:51;;;;;;;10.85;7.00;;;14.40;99.90;;;;;;5015652;28;20021;-73
2022/06/21 08:58:49;;;;;;;15.82;10.43;;;14.40;99.90;;;;;;5015252;28;20050;-72
2022/06/21 09:01:29;;;;;;;10.93;7.70;;;14.40;99.90;;;;;;5015927;28;20041;-72
2022/06/21 09:04:40;;;;;;;8.07;6.10;;;14.40;99.90;;;;;;5015968;28;20471;-73
2022/06/21 09:07:46;;;;;;;9.88;6.07;;;14.40;99.90;;;;;;4974209;28;20088;-71
2022/06/21 09:10:22;;;;;;;9.63;5.82;;;14.40;99.90;;;;;;5012799;28;20065;-71
2022/06/21 09:13:26;;;;;;;7.25;5.03;;;14.40;99.90;;;;;;5015179;28;20496;-71
2022/06/21 09:15:58;;;;;;;7.53;3.88;;;14.40;99.90;;;;;;5013740;28;20063;-71
2022/06/21 09:18:53;;;;;;;6.75;4.65;;;14.50;99.90;;;;;;5015100;28;20022;-71
2022/06/21 09:21:35;;;;;;;8.20;5.07;;;14.40;99.90;;;;;;5013543;28;20034;-72
2022/06/21 09:24:28;;;;;;;8.20;5.15;;;14.40;99.90;;;;;;5015131;28;20021;-72
2022/06/21 09:27:15;;;;;;;7.25;4.78;;;14.20;99.90;;;;;;5014709;28;20022;-73
2022/06/21 09:30:10;;;;;;;9.63;5.20;;;14.10;99.90;;;;;;5015222;28;20425;-72
2022/06/21 09:33:08;;;;;;;8.02;4.72;;;14.00;99.90;;;;;;5014772;28;20441;-71
2022/06/21 09:36:28;;;;;;;9.60;4.82;;;13.90;99.90;;;;;;5013462;28;20028;-71
2022/06/21 09:39:26;;;;;;;7.40;5.13;;;13.80;99.90;;;;;;4973906;28;20023;-71
2022/06/21 09:42:02;;;;;;;6.80;4.70;;;13.70;99.90;;;;;;4973930;28;20054;-71
2022/06/21 09:45:02;;;;;;;8.07;4.90;;;13.60;99.90;;;;;;4999455;28;20141;-71
2022/06/21 09:47:53;;;;;;;6.28;4.90;;;13.50;99.90;;;;;;5013067;28;20483;-72
2022/06/21 09:50:58;;;;;;;7.97;5.75;;;13.40;99.90;;;;;;5014742;28;20029;-72
2022/06/21 09:53:40;;;;;;;6.82;5.28;;;13.30;99.90;;;;;;5014747;28;20033;-72
2022/06/21 09:56:14;;;;;;;6.22;5.63;;;13.20;99.90;;;;;;5012984;28;20478;-73
2022/06/21 09:58:58;;;;;;;6.65;5.75;;;13.10;99.90;;;;;;5012778;28;20180;-72
2022/06/21 10:01:42;;;;;;;7.53;5.40;;;13.00;99.90;;;;;;5014536;28;20022;-72
2022/06/21 10:04:23;;;;;;;9.20;6.53;;;13.00;99.90;;;;;;5014257;28;20386;-72
2022/06/21 10:07:06;;;;;;;8.45;5.78;;;12.90;99.90;;;;;;5014104;28;20054;-72
2022/06/21 10:10:08;;;;;;;6.70;5.60;;;12.90;99.90;;;;;;5013021;28;20095;-72
2022/06/21 10:13:13;;;;;;;6.78;6.13;;;12.90;99.90;;;;;;5014302;28;20026;-71
2022/06/21 10:16:01;;;;;;;7.82;6.53;;;12.80;99.90;;;;;;4993443;28;20042;-71
2022/06/21 10:18:44;;;;;;;10.38;6.68;;;12.80;99.90;;;;;;5013978;28;20026;-71
2022/06/21 10:21:47;;;;;;;9.00;7.22;;;12.70;99.90;;;;;;5012537;28;20029;-72
2022/06/21 10:24:26;;;;;;;11.40;7.78;;;12.70;99.90;;;;;;5014346;28;20029;-74
2022/06/21 10:26:56;;;;;;;10.02;7.35;;;12.70;99.90;;;;;;5013693;28;20033;-71
2022/06/21 10:29:42;;;;;;;13.38;8.18;;;12.70;99.90;;;;;;5013813;28;20021;-71
2022/06/21 10:32:30;;;;;;;11.60;7.82;;;12.70;99.90;;;;;;5013693;28;20148;-74
2022/06/21 10:35:34;;;;;;;11.10;8.00;;;12.70;99.90;;;;;;5013732;28;20090;-72
2022/06/21 10:38:19;;;;;;;10.85;8.35;;;12.70;99.90;;;;;;5012243;28;20421;-72
2022/06/21 10:41:01;;;;;;;7.93;7.13;;;12.60;99.90;;;;;;5013527;28;20486;-72
2022/06/21 10:43:47;;;;;;;10.15;7.70;;;12.60;99.90;;;;;;5013830;28;20034;-73
2022/06/21 10:46:15;;;;;;;9.07;7.82;;;12.50;99.90;;;;;;5013965;28;20034;-73
2022/06/21 10:49:00;;;;;;;10.43;8.05;;;12.50;99.90;;;;;;5013465;28;20160;-73
2022/06/21 10:52:03;;;;;;;8.55;7.15;;;12.50;99.90;;;;;;5013429;28;20491;-73
2022/06/21 10:54:57;;;;;;;10.30;7.95;;;12.50;99.90;;;;;;5013379;28;20018;-72
2022/06/21 10:57:57;;;;;;;9.25;7.50;;;12.40;99.90;;;;;;5013187;28;20060;-72
2022/06/21 11:01:18;;;;;;;7.80;6.28;;;12.30;99.90;;;;;;5012890;28;20075;-73
2022/06/21 11:04:00;;;;;;;7.03;6.32;;;12.30;99.90;;;;;;5003968;28;20406;-72
2022/06/21 11:06:52;;;;;;;8.18;7.00;;;12.30;99.90;;;;;;5011796;28;20087;-72
2022/06/21 11:10:08;;;;;;;9.18;7.13;;;12.30;99.90;;;;;;5013296;28;20018;-72
2022/06/21 11:13:03;;;;;;;8.13;6.30;;;12.30;99.90;;;;;;4995750;28;20030;-72
2022/06/21 11:15:52;;;;;;;9.95;7.00;;;12.20;99.90;;;;;;5013096;28;20025;-72
2022/06/21 11:18:57;;;;;;;7.80;7.10;;;12.20;99.90;;;;;;5011773;28;20121;-72
2022/06/21 11:21:53;;;;;;;7.20;6.50;;;12.20;99.90;;;;;;5007068;28;20038;-73
2022/06/21 11:24:39;;;;;;;11.60;8.00;;;12.10;99.90;;;;;;5013257;28;20029;-73
2022/06/21 11:27:34;;;;;;;16.40;10.40;;;12.20;99.90;;;;;;5011611;28;20022;-72
2022/06/21 11:30:14;;;;;;;11.52;9.57;;;12.20;99.90;;;;;;5013308;28;20018;-72
2022/06/21 11:33:06;;;;;;;10.02;8.55;;;12.10;99.90;;;;;;5013048;28;20014;-72
2022/06/21 11:35:46;;;;;;;8.85;6.32;;;12.20;99.90;;;;;;5016096;28;20557;-73
2022/06/21 11:38:35;;;;;;;7.55;5.55;;;12.20;99.90;;;;;;5016945;28;20474;-73
2022/06/21 11:44:49;;;;;;;5.80;5.30;;;12.20;99.90;;;;;;5016837;28;20037;-71
2022/06/21 11:47:39;;;;;;;5.85;4.75;;;12.30;99.90;;;;;;5016823;28;20033;-72
2022/06/21 11:50:28;;;;;;;6.90;4.60;;;12.40;99.90;;;;;;5016839;28;20080;-72
2022/06/21 11:53:10;;;;;;;5.55;4.97;;;12.40;99.90;;;;;;5015346;28;20030;-72
2022/06/21 11:55:41;;;;;;;6.93;4.90;;;12.40;99.90;;;;;;5017060;28;20092;-72
2022/06/21 11:58:38;;;;;;;10.52;7.20;;;12.40;99.90;;;;;;5016329;28;20502;-72
2022/06/21 12:01:28;;;;;;;9.55;8.60;;;12.30;99.90;;;;;;5016543;28;20026;-71
2022/06/21 12:04:30;;;;;;;9.82;7.18;;;12.30;99.90;;;;;;5016760;28;20398;-71
2022/06/21 12:07:17;;;;;;;10.63;8.32;;;12.30;99.90;;;;;;5010851;28;20060;-71
2022/06/21 12:09:56;;;;;;;9.77;7.03;;;12.30;99.90;;;;;;5015088;28;20510;-71
2022/06/21 12:12:42;;;;;;;9.48;6.95;;;12.20;99.90;;;;;;5016400;28;20101;-71
2022/06/21 12:15:37;;;;;;;9.25;6.82;;;12.20;99.90;;;;;;5016317;28;20044;-71
2022/06/21 12:18:12;;;;;;;9.77;7.38;;;12.10;99.90;;;;;;5014890;28;20034;-71
2022/06/21 12:20:55;;;;;;;8.68;6.82;;;12.00;99.90;;;;;;5016335;28;20085;-71
2022/06/21 12:23:29;;;;;;;9.90;8.90;;;11.90;99.90;;;;;;5014841;28;20053;-71
2022/06/21 12:25:57;;;;;;;9.70;6.40;;;11.80;99.90;;;;;;5016029;28;20036;-73
2022/06/21 12:28:26;;;;;;;7.75;6.32;;;11.80;99.90;;;;;;5016254;28;20068;-73
2022/06/21 12:30:55;;;;;;;7.70;5.80;;;11.70;99.90;;;;;;5014536;28;20026;-73
2022/06/21 12:33:25;;;;;;;8.40;7.45;;;11.60;99.90;;;;;;5015916;28;20102;-73
2022/06/21 12:35:56;;;;;;;7.57;6.72;;;11.70;99.90;;;;;;5016015;28;20026;-73
2022/06/21 12:38:35;;;;;;;7.90;6.57;;;11.60;99.90;;;;;;5015865;28;20520;-72
2022/06/21 12:41:36;;;;;;;38.85;26.73;;;11.50;99.90;;;;;;5016351;28;20113;-71
2022/06/21 12:44:23;;;;;;;;;;;11.40;99.90;;;;;;5016199;28;20105;-71
2022/06/21 12:47:04;;;;;;;21.40;14.70;;;11.40;99.90;;;;;;5015383;28;19909;-72
2022/06/21 12:49:58;;;;;;;18.13;13.00;;;11.30;99.90;;;;;;5015723;28;20018;-73
2022/06/21 12:52:42;;;;;;;13.23;10.23;;;11.20;99.90;;;;;;5014152;28;20029;-73
2022/06/21 12:55:15;;;;;;;11.75;9.18;;;11.30;99.90;;;;;;5015787;28;20084;-72
2022/06/21 12:58:20;;;;;;;11.65;9.15;;;11.20;99.90;;;;;;5013880;28;20125;-74
2022/06/21 13:00:56;;;;;;;11.85;8.50;;;11.10;99.90;;;;;;5015416;28;20030;-74
2022/06/21 13:04:15;;;;;;;9.68;7.75;;;11.10;99.90;;;;;;5013992;28;20043;-74
2022/06/21 13:06:56;;;;;;;8.57;6.93;;;11.00;99.90;;;;;;4979174;28;20053;-74
2022/06/21 13:09:38;;;;;;;7.63;5.10;;;11.00;99.90;;;;;;5015566;28;20429;-73
2022/06/21 13:12:12;;;;;;;7.75;4.50;;;11.00;99.90;;;;;;5015502;28;20026;-73
2022/06/21 13:14:51;;;;;;;5.55;4.38;;;11.00;99.90;;;;;;5013866;28;20493;-73
2022/06/21 13:17:44;;;;;;;4.75;3.60;;;10.90;99.90;;;;;;5015306;28;20033;-73
2022/06/21 13:20:39;;;;;;;3.72;3.40;;;10.90;99.90;;;;;;5015197;28;20026;-73
2022/06/21 13:23:15;;;;;;;5.65;3.63;;;10.90;99.90;;;;;;5015351;28;20021;-74
2022/06/21 13:25:45;;;;;;;4.32;3.15;;;10.80;99.90;;;;;;5014859;28;20498;-74
2022/06/21 13:28:24;;;;;;;5.65;4.10;;;10.80;99.90;;;;;;5015521;28;20011;-73
2022/06/21 13:31:18;;;;;;;5.55;4.22;;;10.80;99.90;;;;;;5015128;28;20029;-72
2022/06/21 13:34:20;;;;;;;3.25;2.65;;;10.70;99.90;;;;;;5013486;28;20067;-73
2022/06/21 13:36:54;;;;;;;3.20;2.55;;;10.80;99.90;;;;;;5013311;28;20037;-73
2022/06/21 13:39:36;;;;;;;3.85;2.85;;;10.80;99.90;;;;;;5014684;28;20054;-73
2022/06/21 13:45:08;;;;;;;2.25;2.05;;;10.90;99.90;;;;;;5014624;28;20096;-73
2022/06/21 13:47:47;;;;;;;;;;;11.00;99.90;;;;;;5015255;28;20052;-72
2022/06/21 13:50:45;;;;;;;3.00;2.10;;;11.10;99.90;;;;;;5014541;28;19906;-72
2022/06/21 13:53:36;;;;;;;2.83;2.30;;;11.10;99.90;;;;;;5012569;28;20038;-72
2022/06/21 13:56:19;;;;;;;4.50;1.92;;;11.20;99.90;;;;;;5014440;28;20033;-73
2022/06/21 13:59:06;;;;;;;3.08;2.05;;;11.20;99.90;;;;;;5013928;28;20042;-72
2022/06/21 14:01:56;;;;;;;3.47;2.25;;;11.30;99.90;;;;;;5014358;28;20032;-72
2022/06/21 14:04:26;;;;;;;2.05;1.40;;;11.20;99.90;;;;;;5014255;28;20095;-72
2022/06/21 14:07:25;;;;;;;3.33;1.95;;;11.30;99.90;;;;;;5013100;28;20116;-72
2022/06/21 14:10:03;;;;;;;1.60;1.20;;;11.40;99.90;;;;;;5012834;28;20414;-72
2022/06/21 14:12:58;;;;;;;2.83;1.48;;;11.50;99.90;;;;;;5014495;28;20021;-72